createdAt,value
2023-04-06T00:05:50.350Z,9.50
2023-04-06T00:11:14.235Z,9.20
2023-04-06T00:16:38.397Z,8.10
2023-04-06T00:22:03.617Z,8.70
2023-04-06T00:27:27.751Z,8.10
2023-04-06T00:32:52.598Z,8.40
2023-04-06T00:38:16.954Z,8.10
2023-04-06T00:43:40.869Z,7.60
2023-04-06T00:49:05.415Z,7.00
2023-04-06T00:54:30.797Z,7.30
2023-04-06T00:59:56.470Z,9.00
2023-04-06T01:05:21.405Z,8.90
2023-04-06T01:10:51.843Z,9.20
2023-04-06T01:16:23.570Z,10.50
2023-04-06T01:22:06.499Z,10.00
2023-04-06T01:27:31.414Z,10.50
2023-04-06T01:33:12.775Z,10.10
2023-04-06T01:44:26.932Z,9.70
2023-04-06T01:50:00.279Z,10.50
2023-04-06T01:55:25.116Z,11.40
2023-04-06T02:01:05.160Z,10.90
2023-04-06T02:06:36.906Z,11.00
2023-04-06T02:12:03.133Z,11.00
2023-04-06T02:17:28.786Z,10.30
2023-04-06T02:22:53.112Z,9.00
2023-04-06T02:28:17.793Z,11.20
2023-04-06T02:33:42.209Z,8.30
2023-04-06T02:39:08.332Z,9.10
2023-04-06T02:44:32.953Z,8.90
2023-04-06T02:49:57.145Z,8.30
2023-04-06T02:55:22.244Z,9.80
2023-04-06T03:00:46.756Z,8.00
2023-04-06T03:06:10.842Z,8.00
2023-04-06T03:11:35.466Z,8.00
2023-04-06T03:16:59.990Z,10.30
2023-04-06T03:22:24.072Z,10.90
2023-04-06T03:27:48.070Z,11.50
2023-04-06T03:33:13.490Z,12.00
2023-04-06T03:38:45.680Z,11.60
2023-04-06T03:44:11.535Z,10.80
2023-04-06T03:49:35.991Z,8.70
2023-04-06T03:55:03.909Z,9.30
2023-04-06T04:00:28.433Z,7.70
2023-04-06T04:05:52.922Z,9.90
2023-04-06T04:11:17.231Z,9.70
2023-04-06T04:16:44.988Z,9.30
2023-04-06T04:22:09.520Z,9.00
2023-04-06T04:27:36.391Z,11.30
2023-04-06T04:33:01.025Z,10.00
2023-04-06T04:38:26.023Z,10.10
2023-04-06T04:43:52.215Z,10.00
2023-04-06T04:49:20.308Z,8.10
2023-04-06T04:54:48.469Z,8.80
2023-04-06T05:00:18.940Z,8.50
2023-04-06T05:05:43.644Z,9.30
2023-04-06T05:11:07.995Z,9.00
2023-04-06T05:17:34.303Z,7.80
2023-04-06T05:23:07.124Z,9.40
2023-04-06T05:28:32.467Z,8.60
2023-04-06T05:33:58.651Z,8.80
2023-04-06T05:39:29.573Z,9.00
2023-04-06T05:44:54.938Z,10.20
2023-04-06T05:50:20.109Z,9.90
2023-04-06T05:55:46.767Z,9.70
2023-04-06T06:01:17.106Z,10.30
2023-04-06T06:06:43.911Z,10.30
2023-04-06T06:12:23.531Z,10.90
2023-04-06T06:17:47.754Z,10.70
2023-04-06T06:23:12.166Z,12.30
2023-04-06T06:28:37.571Z,13.60
2023-04-06T06:34:03.211Z,13.20
2023-04-06T06:39:30.366Z,12.10
2023-04-06T06:44:55.698Z,13.00
2023-04-06T06:50:22.263Z,13.40
2023-04-06T06:55:47.009Z,13.80
2023-04-06T07:01:11.972Z,14.60
2023-04-06T07:06:37.805Z,14.50
2023-04-06T07:12:03.344Z,14.40
2023-04-06T07:17:28.087Z,15.90
2023-04-06T07:22:52.308Z,16.80
2023-04-06T07:28:16.899Z,15.10
2023-04-06T07:33:41.729Z,14.90
2023-04-06T07:39:06.531Z,13.40
2023-04-06T07:44:32.107Z,13.40
2023-04-06T07:49:59.831Z,15.70
2023-04-06T07:55:24.051Z,13.40
2023-04-06T08:00:48.402Z,13.50
2023-04-06T08:06:12.655Z,12.90
2023-04-06T08:11:37.195Z,12.00
2023-04-06T08:17:01.792Z,12.70
2023-04-06T08:22:25.692Z,12.60
2023-04-06T08:27:49.947Z,13.20
2023-04-06T08:33:14.091Z,12.50
2023-04-06T08:38:38.176Z,11.20
2023-04-06T08:44:04.740Z,7.70
2023-04-06T08:49:29.630Z,9.40
2023-04-06T08:54:54.065Z,10.00
2023-04-06T09:00:19.243Z,9.70
2023-04-06T09:05:43.497Z,10.30
2023-04-06T09:11:08.214Z,10.10
2023-04-06T09:16:41.344Z,9.40
2023-04-06T09:22:08.692Z,8.80
2023-04-06T09:27:40.042Z,7.10
2023-04-06T09:33:04.298Z,5.20
2023-04-06T09:38:28.428Z,5.00
2023-04-06T09:43:54.548Z,5.90
2023-04-06T09:49:20.857Z,7.10
2023-04-06T09:54:47.946Z,6.00
2023-04-06T10:00:19.243Z,6.40
2023-04-06T10:05:54.948Z,7.10
2023-04-06T10:11:19.683Z,6.40
2023-04-06T10:16:44.770Z,6.20
2023-04-06T10:22:14.513Z,7.50
2023-04-06T10:27:38.671Z,6.60
2023-04-06T10:33:22.813Z,7.00
2023-04-06T10:38:47.080Z,6.20
2023-04-06T10:44:23.094Z,6.40
2023-04-06T10:49:48.218Z,7.00
2023-04-06T10:55:16.356Z,6.20
2023-04-06T11:00:51.114Z,5.50
2023-04-06T11:06:28.860Z,4.90
2023-04-06T11:11:53.964Z,6.00
2023-04-06T11:17:18.201Z,5.40
2023-04-06T11:23:09.221Z,5.90
2023-04-06T11:28:33.676Z,5.30
2023-04-06T11:33:58.940Z,5.60
2023-04-06T11:39:25.264Z,5.60
2023-04-06T11:44:52.788Z,6.30
2023-04-06T11:50:17.558Z,6.20
2023-04-06T11:55:42.427Z,6.30
2023-04-06T12:01:07.755Z,7.30
2023-04-06T12:07:34.988Z,5.10
2023-04-06T12:12:59.890Z,4.80
2023-04-06T12:18:24.416Z,5.10
2023-04-06T12:23:49.181Z,5.40
2023-04-06T12:29:14.785Z,4.10
2023-04-06T12:34:40.409Z,5.30
2023-04-06T12:40:05.592Z,6.10
2023-04-06T12:45:30.080Z,5.00
2023-04-06T12:51:02.632Z,5.30
2023-04-06T13:01:52.497Z,4.20
2023-04-06T13:07:18.596Z,4.40
2023-04-06T13:12:43.147Z,4.40
2023-04-06T13:18:08.088Z,4.10
2023-04-06T13:23:32.449Z,4.50
2023-04-06T13:28:58.101Z,4.10
2023-04-06T13:34:22.771Z,4.30
2023-04-06T13:39:48.593Z,4.90
2023-04-06T13:45:13.409Z,5.80
2023-04-06T13:50:38.306Z,6.50
2023-04-06T13:56:02.723Z,5.40
2023-04-06T14:01:27.970Z,4.80
2023-04-06T14:06:52.219Z,5.70
2023-04-06T14:12:16.879Z,5.10
2023-04-06T14:17:41.596Z,4.50
2023-04-06T14:23:05.927Z,5.10
2023-04-06T14:28:30.195Z,5.90
2023-04-06T14:33:54.544Z,4.70
2023-04-06T14:39:19.154Z,4.90
2023-04-06T14:44:47.545Z,5.10
2023-04-06T14:50:12.536Z,4.70
2023-04-06T14:55:42.757Z,5.80
2023-04-06T15:01:07.906Z,4.60
2023-04-06T15:06:32.268Z,4.90
2023-04-06T15:11:57.173Z,4.20
2023-04-06T15:17:22.264Z,4.80
2023-04-06T15:22:46.882Z,5.00
2023-04-06T15:28:11.331Z,5.40
2023-04-06T15:33:35.242Z,4.90
2023-04-06T15:39:00.213Z,4.30
2023-04-06T15:44:25.558Z,6.20
2023-04-06T15:49:51.070Z,5.10
2023-04-06T15:55:16.173Z,16.90
2023-04-06T16:00:40.484Z,14.40
2023-04-06T16:06:08.897Z,7.70
2023-04-06T16:11:33.545Z,5.70
2023-04-06T16:16:59.611Z,4.70
2023-04-06T16:22:25.469Z,5.00
2023-04-06T16:27:52.382Z,5.80
2023-04-06T16:33:20.871Z,10.90
2023-04-06T16:38:45.082Z,8.10
2023-04-06T16:44:11.369Z,4.80
2023-04-06T16:49:35.881Z,5.90
2023-04-06T16:55:01.157Z,5.40
2023-04-06T17:00:25.978Z,5.50
2023-04-06T17:05:50.623Z,5.50
2023-04-06T17:11:20.012Z,5.50
2023-04-06T17:16:48.303Z,4.90
2023-04-06T17:22:27.129Z,5.10
2023-04-06T17:28:03.559Z,6.30
2023-04-06T17:33:30.517Z,5.10
2023-04-06T17:38:55.745Z,4.30
2023-04-06T17:44:20.068Z,6.00
2023-04-06T17:49:44.455Z,4.40
2023-04-06T17:55:09.322Z,5.30
2023-04-06T18:00:34.193Z,4.60
2023-04-06T18:05:58.306Z,4.70
2023-04-06T18:11:23.569Z,4.60
2023-04-06T18:16:47.944Z,5.20
2023-04-06T18:22:18.239Z,5.10
2023-04-06T18:27:55.335Z,5.50
2023-04-06T18:33:36.488Z,5.20
2023-04-06T18:39:13.575Z,5.50
2023-04-06T18:44:38.154Z,5.20
2023-04-06T18:50:02.527Z,4.60
2023-04-06T18:55:27.137Z,4.90
2023-04-06T19:00:51.449Z,5.00
2023-04-06T19:06:16.283Z,4.20
2023-04-06T19:11:41.028Z,5.00
2023-04-06T19:17:07.964Z,4.20
2023-04-06T19:22:35.889Z,5.50
2023-04-06T19:28:00.740Z,5.80
2023-04-06T19:33:25.551Z,6.10
2023-04-06T19:38:50.749Z,5.40
2023-04-06T19:44:16.666Z,7.70
2023-04-06T19:49:41.099Z,9.40
2023-04-06T19:55:05.603Z,8.50
2023-04-06T20:00:31.408Z,8.60
2023-04-06T20:05:55.626Z,7.60
2023-04-06T20:11:21.664Z,7.80
2023-04-06T20:16:46.387Z,9.40
2023-04-06T20:22:10.799Z,10.30
2023-04-06T20:27:35.023Z,12.00
2023-04-06T20:32:59.270Z,9.90
2023-04-06T20:38:32.332Z,11.60
2023-04-06T20:43:57.811Z,11.00
2023-04-06T20:49:24.874Z,11.70
2023-04-06T20:54:50.910Z,11.80
2023-04-06T21:00:16.168Z,11.70
2023-04-06T21:05:40.232Z,11.10
2023-04-06T21:11:05.414Z,13.40
2023-04-06T21:16:30.221Z,12.50
2023-04-06T21:21:55.422Z,13.00
2023-04-06T21:27:19.463Z,12.30
2023-04-06T21:32:43.653Z,13.10
2023-04-06T21:38:09.483Z,13.20
2023-04-06T21:43:34.281Z,12.70
2023-04-06T21:49:00.253Z,12.30
2023-04-06T21:54:24.691Z,13.20
2023-04-06T21:59:48.593Z,12.20
2023-04-06T22:05:13.567Z,12.50
2023-04-06T22:10:39.112Z,10.80
2023-04-06T22:16:04.328Z,11.50
2023-04-06T22:21:29.716Z,13.20
2023-04-06T22:26:54.109Z,15.90
2023-04-06T22:32:18.603Z,15.40
2023-04-06T22:37:43.951Z,15.70
2023-04-06T22:43:08.221Z,20.70
2023-04-06T22:48:32.256Z,20.70
2023-04-06T22:53:56.941Z,20.20
2023-04-06T22:59:21.400Z,23.60
2023-04-06T23:04:48.069Z,19.80
2023-04-06T23:10:12.204Z,17.00
2023-04-06T23:15:36.725Z,16.70
2023-04-06T23:21:01.286Z,17.10
2023-04-06T23:26:27.431Z,19.20
2023-04-06T23:31:52.071Z,23.00
2023-04-06T23:37:15.993Z,21.90
2023-04-06T23:42:39.775Z,26.90
2023-04-06T23:48:04.241Z,27.40
2023-04-06T23:53:28.640Z,27.30
2023-04-06T23:58:53.829Z,29.20
